Time;durP1;ratioP1;P1;durP2;ratioP2;P2;SDS_P1;SDS_P2;PMS_P1;PMS_P2;Temp;Humidity;BMP_temperature;BMP_pressure;BME280_temperature;BME280_humidity;BME280_pressure;Samples;Min_cycle;Max_cycle;Signal;HPM_P1;HPM_P2
2021/09/16 00:00:20;;;;;;;1017.70;931.90;;;;;;;12.07;66.07;93785.75;5093688;28;20035;-47
2021/09/16 00:02:46;;;;;;;1035.30;946.22;;;;;;;12.02;66.55;93792.19;5110826;28;20032;-45
2021/09/16 00:05:11;;;;;;;987.90;904.17;;;;;;;12.11;65.95;93795.16;5110791;28;20092;-47
2021/09/16 00:07:37;;;;;;;985.10;904.67;;;;;;;12.00;65.37;93792.00;5111043;28;20073;-46
2021/09/16 00:10:04;;;;;;;1016.65;935.67;;;;;;;11.91;65.53;93784.97;5111085;28;20127;-47
2021/09/16 00:12:30;;;;;;;1008.20;926.53;;;;;;;11.89;65.83;93787.53;5110659;28;20063;-47
2021/09/16 00:14:55;;;;;;;1009.28;928.08;;;;;;;11.80;66.48;93788.06;5110028;28;20061;-46
2021/09/16 00:17:21;;;;;;;1010.08;927.40;;;;;;;11.78;66.86;93792.69;5090249;28;20060;-45
2021/09/16 00:19:47;;;;;;;1038.75;951.22;;;;;;;11.75;66.86;93791.75;5090273;28;20086;-45
2021/09/16 00:22:13;;;;;;;1043.32;954.50;;;;;;;11.77;66.77;93791.19;5090320;28;20055;-45
2021/09/16 00:24:38;;;;;;;1020.83;938.53;;;;;;;11.71;66.56;93777.53;5094511;28;20461;-45
2021/09/16 00:27:04;;;;;;;1017.58;931.13;;;;;;;11.75;66.99;93785.47;5110496;28;20047;-46
2021/09/16 00:29:30;;;;;;;1036.00;953.08;;;;;;;11.61;67.28;93778.59;5110886;28;20032;-46
2021/09/16 00:31:56;;;;;;;1012.35;926.88;;;;;;;11.62;67.31;93785.56;5110789;28;20103;-46
2021/09/16 00:34:21;;;;;;;1021.78;935.75;;;;;;;11.63;67.27;93784.31;5110819;28;20023;-46
2021/09/16 00:36:47;;;;;;;1017.10;933.40;;;;;;;11.60;67.32;93779.84;5110695;28;20500;-46
2021/09/16 00:39:12;;;;;;;1034.50;948.65;;;;;;;11.67;66.65;93791.00;5113496;28;20043;-45
2021/09/16 00:41:38;;;;;;;1009.00;923.85;;;;;;;11.58;66.89;93787.97;5114519;28;20023;-46
2021/09/16 00:44:03;;;;;;;1012.50;928.42;;;;;;;11.59;66.51;93790.16;5114566;28;20038;-46
2021/09/16 00:46:29;;;;;;;1034.18;945.30;;;;;;;11.59;66.18;93786.66;5114796;28;20024;-46
2021/09/16 00:48:54;;;;;;;1051.75;964.55;;;;;;;11.57;66.63;93789.22;5114723;28;20063;-48
2021/09/16 00:51:20;;;;;;;1036.38;950.20;;;;;;;11.58;66.89;93794.25;5114222;28;20027;-45
2021/09/16 00:53:46;;;;;;;1045.82;958.30;;;;;;;11.48;67.57;93790.50;5114412;28;20031;-45
2021/09/16 00:56:12;;;;;;;1023.05;938.25;;;;;;;11.51;67.28;93780.38;5113053;28;20058;-45
2021/09/16 00:58:40;;;;;;;1058.65;970.25;;;;;;;11.50;67.09;93776.13;5093052;28;20501;-46
2021/09/16 01:01:06;;;;;;;1034.68;954.70;;;;;;;11.53;66.22;93780.56;5093826;28;20042;-46
2021/09/16 01:03:32;;;;;;;997.78;919.22;;;;;;;11.57;64.98;93778.19;5093749;28;20066;-47
2021/09/16 01:05:57;;;;;;;1015.45;934.50;;;;;;;11.48;65.14;93784.97;5094082;28;20032;-45
2021/09/16 01:08:23;;;;;;;1018.53;935.33;;;;;;;11.30;65.75;93781.19;5093658;28;20055;-45
2021/09/16 01:10:49;;;;;;;1022.55;942.60;;;;;;;11.16;66.52;93759.75;5093600;28;20060;-46
2021/09/16 01:13:15;;;;;;;1021.90;939.08;;;;;;;11.13;67.37;93763.63;5093930;28;20027;-45
2021/09/16 01:15:42;;;;;;;1043.53;958.53;;;;;;;11.18;67.20;93768.97;5100080;28;20049;-45
2021/09/16 01:18:07;;;;;;;1041.38;956.17;;;;;;;11.20;66.78;93771.94;5114120;28;20054;-46
2021/09/16 01:20:33;;;;;;;1026.63;944.50;;;;;;;11.32;66.08;93769.59;5113877;28;20472;-46
2021/09/16 01:22:59;;;;;;;1029.53;947.40;;;;;;;11.22;65.27;93768.63;5114075;28;20035;-45
2021/09/16 01:25:26;;;;;;;1019.97;937.75;;;;;;;11.14;65.85;93767.84;5103153;28;20454;-47
2021/09/16 01:27:53;;;;;;;1041.32;954.85;;;;;;;11.01;66.68;93770.72;5093203;28;20044;-45
2021/09/16 01:30:19;;;;;;;1049.28;963.88;;;;;;;10.98;66.86;93771.81;5093605;28;20023;-45
2021/09/16 01:32:44;;;;;;;1032.90;946.50;;;;;;;11.03;66.92;93771.66;5093277;28;20032;-46
2021/09/16 01:35:10;;;;;;;1024.95;943.88;;;;;;;11.03;66.60;93770.91;5093435;28;20027;-46
2021/09/16 01:37:35;;;;;;;1055.50;967.08;;;;;;;10.97;67.36;93764.81;5093108;28;20028;-46
2021/09/16 01:40:01;;;;;;;1024.60;941.10;;;;;;;10.91;67.50;93767.00;5092904;28;20073;-46
2021/09/16 01:42:26;;;;;;;1064.15;976.72;;;;;;;10.96;67.38;93775.13;5093155;28;20016;-46
2021/09/16 01:44:51;;;;;;;1030.45;947.30;;;;;;;10.93;67.30;93773.44;5092999;28;20023;-48
2021/09/16 01:47:17;;;;;;;1031.88;947.75;;;;;;;10.92;67.63;93771.22;5093024;28;20016;-46
2021/09/16 01:49:42;;;;;;;1042.18;957.50;;;;;;;10.80;67.06;93770.03;5092735;28;20016;-45
2021/09/16 01:52:08;;;;;;;1039.22;953.92;;;;;;;10.91;66.63;93767.00;5092768;28;20565;-46
2021/09/16 01:54:34;;;;;;;1026.45;943.33;;;;;;;10.65;66.40;93781.72;5109140;28;20027;-46
2021/09/16 01:56:59;;;;;;;1026.78;941.92;;;;;;;10.71;66.53;93779.56;5113334;28;20032;-45
2021/09/16 01:59:25;;;;;;;1039.88;955.33;;;;;;;10.64;66.51;93783.75;5113185;28;20486;-46
2021/09/16 02:01:50;;;;;;;1006.17;924.33;;;;;;;10.66;66.65;93772.91;5112999;28;20023;-49
2021/09/16 02:04:15;;;;;;;1049.28;963.70;;;;;;;10.63;67.19;93784.28;5113363;28;20027;-45
2021/09/16 02:06:41;;;;;;;1038.90;955.35;;;;;;;10.68;67.00;93777.16;5113260;28;20020;-46
2021/09/16 02:09:06;;;;;;;1077.60;989.60;;;;;;;10.60;67.34;93783.34;5113250;28;20024;-45
2021/09/16 02:11:32;;;;;;;1039.68;954.22;;;;;;;10.64;66.43;93783.00;5113166;28;20097;-45
2021/09/16 02:13:57;;;;;;;1047.57;962.88;;;;;;;10.62;66.86;93780.03;5112840;28;20085;-45
2021/09/16 02:16:22;;;;;;;1032.13;948.45;;;;;;;10.49;67.36;93778.09;5099780;28;20028;-45
2021/09/16 02:18:48;;;;;;;1048.88;962.42;;;;;;;10.45;67.73;93780.47;5092664;28;20039;-46
2021/09/16 02:21:13;;;;;;;1054.30;967.30;;;;;;;10.49;67.56;93786.38;5092324;28;20398;-45
2021/09/16 02:23:39;;;;;;;1055.75;972.33;;;;;;;10.46;67.46;93781.94;5092538;28;20031;-45
2021/09/16 02:26:04;;;;;;;1059.07;973.85;;;;;;;10.49;66.99;93785.66;5108061;28;20020;-46
2021/09/16 02:28:30;;;;;;;1066.78;980.95;;;;;;;10.40;66.85;93773.06;5112823;28;20027;-46
2021/09/16 02:30:55;;;;;;;1050.07;964.20;;;;;;;10.39;66.81;93771.59;5112296;28;20024;-46
2021/09/16 02:33:21;;;;;;;1038.95;955.75;;;;;;;10.40;66.73;93770.31;5112706;27;20024;-46
2021/09/16 02:35:51;;;;;;;1043.70;958.30;;;;;;;10.36;66.86;93772.66;5112741;28;20034;-45
2021/09/16 02:38:18;;;;;;;1067.20;977.70;;;;;;;10.39;66.82;93773.59;5112580;28;20023;-45
2021/09/16 02:40:44;;;;;;;1041.15;958.75;;;;;;;10.31;67.54;93776.28;5112255;28;20030;-46
2021/09/16 02:43:09;;;;;;;1030.47;945.75;;;;;;;10.29;66.97;93767.06;5112173;28;20023;-45
2021/09/16 02:45:35;;;;;;;1041.95;957.92;;;;;;;10.22;67.32;93771.25;5112202;28;20027;-46
2021/09/16 02:48:00;;;;;;;1033.25;948.90;;;;;;;10.09;68.29;93767.78;5112115;28;20020;-46
2021/09/16 02:50:25;;;;;;;1031.03;946.83;;;;;;;10.09;68.12;93765.75;5112024;28;20032;-46
2021/09/16 02:52:51;;;;;;;1061.95;974.25;;;;;;;10.05;67.84;93761.88;5112314;28;20023;-46
2021/09/16 02:55:18;;;;;;;1051.45;964.83;;;;;;;10.15;67.60;93768.44;5112006;28;20030;-45
2021/09/16 02:57:44;;;;;;;1029.47;946.33;;;;;;;10.03;67.71;93747.88;5111879;28;20531;-45
2021/09/16 03:00:10;;;;;;;1019.05;936.92;;;;;;;10.13;67.20;93768.97;5111682;28;20035;-44
2021/09/16 03:02:35;;;;;;;1035.25;951.90;;;;;;;10.09;67.10;93768.50;5111749;28;20416;-46
2021/09/16 03:05:01;;;;;;;1038.03;955.88;;;;;;;10.10;67.60;93767.25;5110751;28;20019;-46
2021/09/16 03:07:26;;;;;;;1039.38;952.05;;;;;;;10.11;67.63;93777.06;5111789;28;20053;-47
2021/09/16 03:09:52;;;;;;;1033.80;947.17;;;;;;;9.97;67.09;93775.59;5111628;28;20042;-48
2021/09/16 03:12:17;;;;;;;1044.15;959.97;;;;;;;9.93;67.71;93773.16;5111719;28;20031;-47
2021/09/16 03:14:42;;;;;;;1013.75;929.63;;;;;;;9.85;68.02;93774.38;5111599;28;20035;-48
2021/09/16 03:17:08;;;;;;;1022.55;939.05;;;;;;;9.83;68.06;93774.16;5092144;28;20031;-46
2021/09/16 03:19:33;;;;;;;1030.82;945.35;;;;;;;9.86;67.53;93776.59;5091025;28;20031;-48
2021/09/16 03:21:59;;;;;;;1028.22;945.15;;;;;;;9.91;67.29;93772.97;5091091;28;20020;-46
2021/09/16 03:24:25;;;;;;;1032.80;949.33;;;;;;;9.75;67.97;93771.31;5093575;28;20413;-48
2021/09/16 03:26:51;;;;;;;1016.15;935.05;;;;;;;9.85;67.44;93779.88;5111307;28;20044;-49
2021/09/16 03:29:16;;;;;;;997.10;915.33;;;;;;;9.58;68.17;93772.97;5111442;28;20027;-47
2021/09/16 03:31:41;;;;;;;983.25;904.92;;;;;;;9.53;68.46;93769.03;5111233;28;20042;-47
2021/09/16 03:34:07;;;;;;;1018.70;936.45;;;;;;;9.58;68.24;93778.47;5111343;28;20016;-48
2021/09/16 03:36:32;;;;;;;986.40;906.95;;;;;;;9.61;68.34;93774.66;5111488;28;20026;-48
2021/09/16 03:38:59;;;;;;;979.30;900.15;;;;;;;9.55;69.12;93776.81;5111483;28;20053;-46
2021/09/16 03:41:25;;;;;;;1016.10;933.67;;;;;;;9.56;68.55;93776.25;5111267;28;20050;-46
2021/09/16 03:43:50;;;;;;;1024.78;939.63;;;;;;;9.60;68.18;93778.69;5111397;28;20023;-46
2021/09/16 03:46:15;;;;;;;1012.20;931.03;;;;;;;9.58;68.42;93770.22;5111009;28;20023;-48
2021/09/16 03:48:41;;;;;;;1023.25;940.78;;;;;;;9.49;68.50;93776.91;5111051;28;20026;-49
2021/09/16 03:51:06;;;;;;;989.88;910.75;;;;;;;9.61;68.39;93783.69;5111150;28;20034;-48
2021/09/16 03:53:32;;;;;;;1021.38;937.38;;;;;;;9.56;67.73;93786.53;5103157;28;20031;-47
2021/09/16 03:55:59;;;;;;;1009.35;929.70;;;;;;;9.58;67.72;93792.25;5109891;28;20020;-47
2021/09/16 03:58:25;;;;;;;1007.00;927.95;;;;;;;9.55;67.56;93783.03;5110361;28;20019;-48
2021/09/16 04:00:50;;;;;;;1015.38;936.45;;;;;;;9.50;67.72;93786.66;5110358;28;20020;-46
2021/09/16 04:03:15;;;;;;;1037.60;954.90;;;;;;;9.54;67.59;93783.56;5111268;28;20024;-46
2021/09/16 04:05:41;;;;;;;1032.03;949.17;;;;;;;9.46;67.91;93791.78;5109878;28;20057;-46
2021/09/16 04:08:07;;;;;;;994.17;917.50;;;;;;;9.48;67.76;93791.97;5109198;28;20417;-46
2021/09/16 04:10:32;;;;;;;978.55;902.88;;;;;;;9.46;67.75;93791.03;5109119;28;20023;-46
2021/09/16 04:12:58;;;;;;;1019.20;937.55;;;;;;;9.39;67.89;93795.16;5108839;28;20223;-47
2021/09/16 04:15:23;;;;;;;1011.90;932.15;;;;;;;9.33;68.28;93786.28;5104295;28;20048;-46
2021/09/16 04:17:49;;;;;;;982.28;903.17;;;;;;;9.32;68.44;93786.78;5088367;28;20016;-48
2021/09/16 04:20:14;;;;;;;989.45;909.63;;;;;;;9.30;68.89;93790.09;5089271;28;20190;-46
2021/09/16 04:22:40;;;;;;;1015.03;931.00;;;;;;;9.35;68.81;93789.25;5090224;28;20036;-46
2021/09/16 04:25:06;;;;;;;998.45;920.00;;;;;;;9.43;68.62;93781.06;5098318;28;20111;-47
2021/09/16 04:27:31;;;;;;;1022.38;939.92;;;;;;;9.41;68.25;93787.09;5110318;28;20143;-48
2021/09/16 04:29:57;;;;;;;992.78;914.75;;;;;;;9.46;67.03;93786.25;5110579;28;20058;-46
2021/09/16 04:32:22;;;;;;;999.53;920.67;;;;;;;9.50;67.20;93791.44;5110466;28;20020;-46
2021/09/16 04:34:48;;;;;;;1011.88;934.13;;;;;;;9.43;67.18;93784.56;5110480;28;20084;-46
2021/09/16 04:37:13;;;;;;;1008.75;928.22;;;;;;;9.45;67.44;93795.03;5109170;28;20020;-46
2021/09/16 04:39:39;;;;;;;1003.00;922.88;;;;;;;9.46;67.41;93802.03;5110754;28;20027;-48
2021/09/16 04:42:06;;;;;;;986.47;908.85;;;;;;;9.40;67.99;93798.66;5110505;28;20462;-47
2021/09/16 04:44:32;;;;;;;992.45;914.50;;;;;;;9.13;68.63;93784.94;5110650;28;20026;-46
2021/09/16 04:46:58;;;;;;;988.58;908.53;;;;;;;9.20;69.27;93780.78;5110661;28;20106;-47
2021/09/16 04:49:24;;;;;;;1014.38;932.15;;;;;;;9.38;69.34;93798.44;5110382;28;20102;-46
2021/09/16 04:51:49;;;;;;;999.05;918.92;;;;;;;9.60;68.59;93803.50;5110369;28;20024;-46
2021/09/16 04:54:15;;;;;;;1011.78;930.10;;;;;;;9.60;69.19;93795.97;5110397;28;20035;-49
2021/09/16 04:56:40;;;;;;;1029.07;944.03;;;;;;;9.72;68.09;93799.94;5110476;28;20020;-51
2021/09/16 04:59:05;;;;;;;989.25;907.92;;;;;;;9.73;68.32;93798.69;5110425;28;20023;-46
2021/09/16 05:01:31;;;;;;;990.53;910.60;;;;;;;9.63;68.44;93799.66;5110210;28;20015;-48
2021/09/16 05:03:56;;;;;;;1037.32;953.47;;;;;;;9.54;68.96;93789.84;5110523;28;20020;-46
2021/09/16 05:06:22;;;;;;;1032.07;947.67;;;;;;;9.26;69.26;93788.94;5110485;28;20400;-47
2021/09/16 05:08:47;;;;;;;1008.30;930.78;;;;;;;9.48;68.24;93788.47;5110491;28;20020;-48
2021/09/16 05:11:13;;;;;;;1012.75;930.90;;;;;;;9.48;68.27;93788.47;5110457;28;20049;-47
2021/09/16 05:13:39;;;;;;;977.00;895.38;;;;;;;9.51;68.86;93801.16;5110170;28;20073;-48
2021/09/16 05:16:04;;;;;;;985.90;905.90;;;;;;;9.56;69.60;93803.06;5109589;28;20051;-49
2021/09/16 05:18:30;;;;;;;996.65;915.08;;;;;;;9.58;69.31;93800.53;5110446;28;20024;-46
2021/09/16 05:20:55;;;;;;;1021.58;935.63;;;;;;;9.69;69.27;93797.53;5110073;28;20028;-46
2021/09/16 05:23:21;;;;;;;1030.05;945.10;;;;;;;9.65;70.58;93811.66;5110043;28;20024;-46
2021/09/16 05:25:46;;;;;;;1040.90;953.13;;;;;;;9.82;71.47;93811.28;5098590;28;20035;-46
2021/09/16 05:28:11;;;;;;;1051.20;963.72;;;;;;;9.84;71.32;93809.47;5093162;28;20036;-48
2021/09/16 05:30:37;;;;;;;1073.13;979.75;;;;;;;9.93;72.64;93822.06;5093354;28;20477;-49
2021/09/16 05:33:07;;;;;;;1064.38;974.15;;;;;;;9.98;72.94;93815.69;5093240;28;20028;-48
2021/09/16 05:35:33;;;;;;;1065.15;972.78;;;;;;;10.21;72.41;93821.44;5093485;28;20120;-49
2021/09/16 05:37:59;;;;;;;1059.90;965.65;;;;;;;10.48;72.68;93825.59;5097216;28;20464;-46
2021/09/16 05:40:24;;;;;;;1072.75;977.65;;;;;;;10.64;72.37;93805.84;5113458;28;20073;-47
2021/09/16 05:42:50;;;;;;;1087.85;991.47;;;;;;;10.86;72.41;93823.84;5113789;28;20103;-50
2021/09/16 05:45:15;;;;;;;1090.72;994.40;;;;;;;10.85;73.54;93814.06;5113355;28;20035;-48
2021/09/16 05:47:41;;;;;;;1078.55;984.25;;;;;;;10.94;73.60;93815.59;5113600;27;20016;-46
2021/09/16 05:50:07;;;;;;;1076.32;974.65;;;;;;;10.98;74.64;93813.25;5113474;28;20485;-47
2021/09/16 05:52:32;;;;;;;1057.47;964.08;;;;;;;10.90;72.78;93806.94;5113249;28;20682;-48
2021/09/16 05:54:58;;;;;;;1095.28;995.63;;;;;;;11.01;72.58;93812.16;5113639;28;20019;-47
2021/09/16 05:57:23;;;;;;;1069.38;974.03;;;;;;;11.06;73.15;93816.81;5113369;27;20020;-48
2021/09/16 05:59:48;;;;;;;1087.80;988.47;;;;;;;11.20;73.40;93823.69;5113180;28;20400;-50
2021/09/16 06:02:14;;;;;;;1107.57;999.90;;;;;;;11.36;73.22;93820.50;5113112;28;20026;-48
2021/09/16 06:04:39;;;;;;;1108.55;999.88;;;;;;;11.53;73.20;93811.72;5113031;28;20020;-47
2021/09/16 06:07:05;;;;;;;1093.97;986.28;;;;;;;11.73;72.44;93810.91;5113049;28;20026;-49
2021/09/16 06:09:31;;;;;;;1099.72;990.92;;;;;;;11.98;71.79;93805.63;5112939;28;20079;-50
2021/09/16 06:11:59;;;;;;;1095.50;983.58;;;;;;;12.26;70.83;93811.06;5112906;28;20015;-48
2021/09/16 06:14:24;;;;;;;1136.28;999.90;;;;;;;12.44;70.33;93815.53;5113124;28;20454;-46
2021/09/16 06:16:52;;;;;;;1125.65;998.45;;;;;;;12.71;70.24;93804.84;5112383;28;20084;-49
2021/09/16 06:19:17;;;;;;;1141.82;999.90;;;;;;;12.87;71.04;93809.81;5113138;28;20400;-47
2021/09/16 06:21:43;;;;;;;1157.30;999.90;;;;;;;13.04;70.86;93811.28;5112996;28;20019;-46
2021/09/16 06:24:08;;;;;;;1121.25;998.78;;;;;;;13.22;69.86;93819.22;5112977;28;20490;-49
2021/09/16 06:26:34;;;;;;;1153.50;999.90;;;;;;;13.40;69.21;93820.88;5112631;28;20501;-48
2021/09/16 06:28:59;;;;;;;1195.47;999.90;;;;;;;13.56;68.98;93821.53;5112879;28;20034;-47
2021/09/16 06:31:24;;;;;;;1200.32;999.90;;;;;;;13.71;69.42;93812.44;5112614;28;20510;-49
2021/09/16 06:33:50;;;;;;;1198.97;999.90;;;;;;;13.85;70.04;93816.44;5111663;28;20098;-50
2021/09/16 06:36:15;;;;;;;1209.13;999.90;;;;;;;13.87;70.79;93822.94;5092135;28;20035;-48
2021/09/16 06:38:41;;;;;;;1190.10;999.90;;;;;;;14.21;69.99;93823.13;5091967;28;20065;-47
2021/09/16 06:41:06;;;;;;;1204.38;999.90;;;;;;;14.72;68.69;93813.56;5091733;28;20020;-46
2021/09/16 06:43:32;;;;;;;1176.82;999.90;;;;;;;15.23;68.08;93816.47;5091878;28;20016;-47
2021/09/16 06:45:57;;;;;;;1130.97;999.90;;;;;;;15.80;65.91;93816.28;5092135;28;20107;-47
2021/09/16 06:48:23;;;;;;;1044.57;951.75;;;;;;;16.46;63.83;93813.19;5091764;28;20012;-49
2021/09/16 06:50:48;;;;;;;1022.78;927.83;;;;;;;17.21;61.78;93810.59;5091798;28;20024;-49
2021/09/16 06:53:13;;;;;;;1073.93;973.10;;;;;;;17.78;59.79;93809.97;5091670;28;20024;-49
2021/09/16 06:55:39;;;;;;;1046.60;948.28;;;;;;;18.42;57.96;93803.44;5091977;28;20020;-48
2021/09/16 06:58:04;;;;;;;901.35;810.17;;;;;;;19.07;55.90;93800.28;5091826;28;20505;-47
2021/09/16 07:00:30;;;;;;;971.30;864.35;;;;;;;19.82;53.12;93817.25;5091885;28;20378;-50
2021/09/16 07:02:55;;;;;;;1076.00;933.35;;;;;;;20.52;50.97;93806.34;5091790;28;20401;-50
2021/09/16 07:05:21;;;;;;;1336.82;995.05;;;;;;;21.69;48.74;93806.53;5091761;28;20512;-48
2021/09/16 07:07:46;;;;;;;1449.60;999.90;;;;;;;23.36;44.04;93798.28;5091472;28;20024;-51
2021/09/16 07:10:12;;;;;;;1557.15;999.90;;;;;;;25.12;40.19;93799.22;5091353;28;20023;-47
2021/09/16 07:12:37;;;;;;;1277.13;999.90;;;;;;;26.98;35.69;93805.75;5091665;28;20028;-48
2021/09/16 07:15:03;;;;;;;1131.93;999.90;;;;;;;28.76;32.68;93807.88;5091215;28;20090;-47
2021/09/16 07:17:29;;;;;;;1159.50;999.90;;;;;;;30.46;30.31;93802.19;5091169;28;20106;-48
2021/09/16 07:19:54;;;;;;;1115.80;999.90;;;;;;;32.01;27.10;93794.34;5091197;28;20024;-47
2021/09/16 07:22:19;;;;;;;1073.47;984.97;;;;;;;33.20;24.77;93807.88;5091208;28;20029;-50
2021/09/16 07:24:45;;;;;;;991.72;915.83;;;;;;;34.08;23.46;93800.50;5096312;28;20026;-49
2021/09/16 07:27:10;;;;;;;981.08;909.13;;;;;;;34.83;22.54;93804.13;5111360;28;20100;-47
2021/09/16 07:29:36;;;;;;;903.63;839.65;;;;;;;35.24;22.26;93796.59;5111516;28;20015;-47
2021/09/16 07:32:01;;;;;;;867.63;807.35;;;;;;;35.91;20.75;93809.22;5111310;28;20046;-51
2021/09/16 07:34:27;;;;;;;848.53;791.40;;;;;;;36.38;20.17;93802.97;5111607;28;20552;-48
2021/09/16 07:36:52;;;;;;;809.85;756.78;;;;;;;37.00;19.09;93804.50;5111183;28;20019;-49
2021/09/16 07:39:19;;;;;;;800.80;748.22;;;;;;;37.56;18.68;93798.00;5111541;28;20027;-49
2021/09/16 07:41:46;;;;;;;780.83;729.80;;;;;;;38.19;18.52;93807.19;5111515;28;20023;-49
2021/09/16 07:44:12;;;;;;;766.35;717.58;;;;;;;38.57;17.86;93801.25;5111196;28;20074;-49
2021/09/16 07:46:37;;;;;;;742.72;695.05;;;;;;;38.44;17.39;93797.72;5111002;28;20068;-49
2021/09/16 07:49:03;;;;;;;782.88;731.83;;;;;;;37.47;19.22;93797.28;5111329;28;20562;-47
2021/09/16 07:51:28;;;;;;;750.15;702.08;;;;;;;36.61;19.87;93795.09;5111405;28;20015;-46
2021/09/16 07:53:54;;;;;;;707.47;664.00;;;;;;;36.96;18.96;93790.13;5111218;28;20028;-47
2021/09/16 07:56:19;;;;;;;709.22;665.42;;;;;;;36.56;19.66;93790.06;5110939;27;20386;-48
2021/09/16 07:58:45;;;;;;;684.65;642.65;;;;;;;36.71;19.17;93792.22;5111212;28;20032;-49
2021/09/16 08:01:11;;;;;;;671.47;630.22;;;;;;;37.24;18.77;93787.97;5110896;28;20023;-47
2021/09/16 08:03:37;;;;;;;633.38;594.15;;;;;;;37.66;17.72;93790.06;5111157;28;20019;-47
2021/09/16 08:06:03;;;;;;;656.97;616.65;;;;;;;38.27;17.88;93787.69;5111080;28;20698;-47
2021/09/16 08:08:28;;;;;;;629.83;590.58;;;;;;;39.25;16.57;93788.50;5110812;28;20683;-46
2021/09/16 08:10:54;;;;;;;643.92;604.65;;;;;;;39.17;16.40;93788.59;5110764;28;20062;-48
2021/09/16 08:13:19;;;;;;;632.97;594.70;;;;;;;38.93;16.25;93785.88;5110798;28;20051;-46
2021/09/16 08:15:44;;;;;;;648.78;608.75;;;;;;;39.16;16.74;93772.69;5103035;28;20027;-48
2021/09/16 08:18:10;;;;;;;629.40;590.92;;;;;;;39.75;15.44;93793.84;5090545;28;20024;-47
2021/09/16 08:20:41;;;;;;;607.45;570.03;;;;;;;40.13;15.60;93790.50;5090139;28;20485;-48
2021/09/16 08:23:06;;;;;;;512.05;482.38;;;;;;;40.11;14.80;93790.53;5090248;28;20028;-47
2021/09/16 08:25:32;;;;;;;496.73;467.90;;;;;;;40.46;14.65;93781.47;5102003;28;20027;-49
2021/09/16 08:27:57;;;;;;;486.63;459.30;;;;;;;41.07;14.74;93781.28;5110252;28;20036;-49
2021/09/16 08:30:23;;;;;;;463.10;436.92;;;;;;;41.74;14.39;93772.91;5110838;28;20019;-48
2021/09/16 08:32:48;;;;;;;443.02;417.85;;;;;;;42.11;13.82;93772.91;5110911;28;20020;-48
2021/09/16 08:35:14;;;;;;;412.55;389.23;;;;;;;42.32;12.41;93776.13;5110532;28;20409;-48
2021/09/16 08:37:40;;;;;;;398.67;375.95;;;;;;;42.59;12.53;93769.00;5110503;28;20024;-48
2021/09/16 08:40:07;;;;;;;400.85;371.98;;;;;;;42.81;12.35;93770.69;5110425;28;20027;-49
2021/09/16 08:42:36;;;;;;;389.00;367.83;;;;;;;43.39;11.94;93766.41;5110440;28;20028;-50
2021/09/16 08:45:02;;;;;;;352.17;333.20;;;;;;;43.61;11.52;93765.84;5110480;28;20107;-49
2021/09/16 08:47:29;;;;;;;368.17;348.75;;;;;;;43.85;11.66;93760.84;5110652;28;20098;-48
2021/09/16 08:49:55;;;;;;;307.85;291.52;;;;;;;44.38;11.24;93758.59;5110443;28;20020;-49
2021/09/16 08:52:21;;;;;;;277.40;263.65;;;;;;;44.69;10.77;93758.44;5110681;28;20031;-48
2021/09/16 08:54:47;;;;;;;264.75;250.55;;;;;;;44.69;11.05;93769.38;5110239;28;20055;-50
2021/09/16 08:57:15;;;;;;;249.32;236.48;;;;;;;44.83;10.96;93757.31;5109188;28;20488;-48
2021/09/16 08:59:43;;;;;;;265.85;252.55;;;;;;;44.93;11.12;93760.63;5112635;28;20023;-50
2021/09/16 09:02:08;;;;;;;218.75;208.50;;;;;;;44.94;10.74;93752.59;5114575;28;20036;-47
2021/09/16 09:04:34;;;;;;;218.05;207.50;;;;;;;45.07;10.64;93753.63;5114542;28;20065;-49
2021/09/16 09:07:04;;;;;;;203.60;193.85;;;;;;;45.03;10.58;93736.25;5114222;28;20035;-49
2021/09/16 09:09:30;;;;;;;230.73;219.70;;;;;;;45.02;10.95;93758.88;5114036;28;20039;-51
2021/09/16 09:11:58;;;;;;;209.35;199.02;;;;;;;44.79;10.75;93754.50;5114085;28;20043;-48
2021/09/16 09:14:27;;;;;;;171.32;163.10;;;;;;;44.76;10.13;93753.13;5114100;28;20165;-50
2021/09/16 09:16:53;;;;;;;171.35;163.13;;;;;;;45.18;10.37;93751.84;5096710;28;20020;-49
2021/09/16 09:19:21;;;;;;;156.70;149.43;;;;;;;44.78;10.59;93753.06;5093904;28;20028;-50
2021/09/16 09:21:46;;;;;;;141.65;134.88;;;;;;;44.82;10.23;93744.94;5093483;28;20473;-49
2021/09/16 09:24:13;;;;;;;175.07;166.95;;;;;;;44.66;10.48;93747.63;5107509;28;20023;-49
2021/09/16 09:26:40;;;;;;;151.48;144.18;;;;;;;44.25;10.64;93742.97;5093226;28;20600;-48
2021/09/16 09:29:08;;;;;;;150.77;143.53;;;;;;;44.26;10.36;93743.69;5093745;28;20595;-49
2021/09/16 09:31:54;;;;;;;143.55;136.60;;;;;;;44.24;10.74;93741.56;5093633;28;20036;-50
2021/09/16 09:34:26;;;;;;;142.98;136.35;;;;;;;44.21;10.31;93737.28;5085756;28;20032;-51
2021/09/16 09:36:52;;;;;;;155.82;140.07;;;;;;;43.84;11.14;93736.16;5093489;28;20056;-49
2021/09/16 09:39:25;;;;;;;132.73;125.90;;;;;;;41.99;11.78;93739.06;5093518;28;20065;-48
2021/09/16 09:41:51;;;;;;;130.93;124.65;;;;;;;41.18;13.44;93736.91;5093152;28;20059;-50
2021/09/16 09:44:16;;;;;;;131.48;124.95;;;;;;;41.30;13.46;93745.41;5093444;28;20077;-50
2021/09/16 09:46:51;;;;;;;105.18;100.05;;;;;;;40.76;13.33;93738.28;5093358;28;20027;-49
2021/09/16 09:49:19;;;;;;;103.95;98.93;;;;;;;40.53;13.49;93737.19;5093003;28;20047;-49
2021/09/16 09:51:51;;;;;;;;;;;;;;;40.30;13.80;93744.75;5092282;28;20024;-51
2021/09/16 09:54:33;;;;;;;91.70;86.80;;;;;;;37.59;14.97;93738.94;5092874;28;19915;-48
2021/09/16 09:57:04;;;;;;;90.28;85.47;;;;;;;37.03;15.81;93737.59;5092792;28;20032;-49
2021/09/16 09:59:58;;;;;;;61.75;58.20;;;;;;;37.16;15.61;93735.41;5092934;28;20036;-50
2021/09/16 10:02:29;;;;;;;54.80;52.13;;;;;;;35.73;16.63;93727.25;5093081;28;20417;-48
2021/09/16 10:04:55;;;;;;;55.67;52.67;;;;;;;35.39;17.17;93735.66;5092949;28;20028;-49
2021/09/16 10:07:38;;;;;;;45.80;43.30;;;;;;;36.81;16.91;93733.97;5092944;28;20032;-48
2021/09/16 10:10:10;;;;;;;45.70;43.25;;;;;;;37.58;15.56;93729.56;5092314;28;20094;-46
2021/09/16 10:12:36;;;;;;;52.63;49.88;;;;;;;38.47;15.78;93732.06;5092818;28;20465;-48
2021/09/16 10:15:03;;;;;;;60.80;57.67;;;;;;;38.94;14.82;93741.13;5092460;28;20556;-49
2021/09/16 10:17:28;;;;;;;61.35;58.35;;;;;;;39.60;14.00;93736.91;5092642;28;20024;-49
2021/09/16 10:19:54;;;;;;;71.72;68.35;;;;;;;40.10;14.28;93730.53;5102234;28;20153;-48
2021/09/16 10:22:20;;;;;;;75.78;71.85;;;;;;;40.18;13.82;93736.22;5112795;28;20031;-48
2021/09/16 10:24:46;;;;;;;89.45;84.72;;;;;;;41.01;13.65;93729.97;5106349;28;20023;-48
2021/09/16 10:27:33;;;;;;;89.35;84.90;;;;;;;41.13;12.84;93729.75;5091028;28;20131;-48
2021/09/16 10:30:00;;;;;;;100.03;95.20;;;;;;;40.90;12.98;93720.00;5092307;28;20028;-49
2021/09/16 10:32:28;;;;;;;101.07;96.18;;;;;;;41.24;12.88;93721.63;5092414;28;20028;-48
2021/09/16 10:34:58;;;;;;;97.72;93.18;;;;;;;41.26;12.67;93716.50;5092387;28;20116;-53
2021/09/16 10:37:33;;;;;;;94.05;89.57;;;;;;;41.51;12.59;93708.81;5092065;28;20028;-50
2021/09/16 10:39:59;;;;;;;92.95;88.30;;;;;;;41.07;12.29;93711.75;5092411;28;20442;-51
2021/09/16 10:42:48;;;;;;;86.30;82.38;;;;;;;39.90;13.25;93704.75;5091924;28;20111;-47
2021/09/16 10:45:14;;;;;;;67.35;64.10;;;;;;;40.17;12.91;93694.28;5091952;28;20028;-47
2021/09/16 10:47:39;;;;;;;76.38;72.82;;;;;;;40.77;12.79;93707.16;5091871;28;20023;-49
2021/09/16 10:50:20;;;;;;;63.90;60.67;;;;;;;40.98;12.67;93698.88;5091939;28;20016;-50
2021/09/16 10:52:45;;;;;;;67.05;63.90;;;;;;;40.94;12.11;93704.72;5092084;28;20024;-49
2021/09/16 10:55:11;;;;;;;93.93;89.22;;;;;;;40.30;12.93;93697.72;5091743;28;20049;-50